Armington, Montana
Current Conditions -  °F | °C
As of 6:56 PM on Wednesday 22 Oct 2014 (Local Time) from KGFA Reporting Station
Clear Clear  
Wind Chill: 52°   Ceiling: Unl
Heat Index: 52°   Visibility: 10mi
Dew Point: 34°   Wind: 18mph
Humidity: 50%   Direction: 230°SW
Pressure: 29.89"   Gusts: NA
Location:  47.3298°N, 110.893°W
Report Text: KGFA 230056Z AUTO 23016KT 10SM CLR 11/01 A2989 RMK AO2 SLP138 T01100010
Loading
Personal Weather Stations






























Interactive Weather Map
Tropical Storm Tracking
New forecast layout! Learn more

10-Day Weather Forecast

Advertisements
Track Severe Weather on mobile